sensor_id;sensor_type;location;lat;lon;timestamp;temperature;humidity
26537;DHT22;14204;51.262;5.488;2022-11-15T00:01:48;9.90;99.90
26537;DHT22;14204;51.262;5.488;2022-11-15T00:04:14;9.90;99.90
26537;DHT22;14204;51.262;5.488;2022-11-15T00:06:40;9.90;99.90
26537;DHT22;14204;51.262;5.488;2022-11-15T00:09:06;9.90;99.90
26537;DHT22;14204;51.262;5.488;2022-11-15T00:11:31;9.90;99.90
26537;DHT22;14204;51.262;5.488;2022-11-15T00:13:58;9.90;99.90
26537;DHT22;14204;51.262;5.488;2022-11-15T00:16:24;10.00;99.90
26537;DHT22;14204;51.262;5.488;2022-11-15T00:18:50;10.20;99.90
26537;DHT22;14204;51.262;5.488;2022-11-15T00:21:17;10.20;99.90
26537;DHT22;14204;51.262;5.488;2022-11-15T00:23:43;10.30;99.90
26537;DHT22;14204;51.262;5.488;2022-11-15T00:26:13;10.40;99.90
26537;DHT22;14204;51.262;5.488;2022-11-15T00:28:39;10.40;99.90
26537;DHT22;14204;51.262;5.488;2022-11-15T00:31:13;10.60;99.90
26537;DHT22;14204;51.262;5.488;2022-11-15T00:33:39;10.60;99.90
26537;DHT22;14204;51.262;5.488;2022-11-15T00:36:07;10.70;99.90
26537;DHT22;14204;51.262;5.488;2022-11-15T00:38:38;10.80;99.90
26537;DHT22;14204;51.262;5.488;2022-11-15T00:41:05;10.80;99.90
26537;DHT22;14204;51.262;5.488;2022-11-15T00:43:32;10.90;99.90
26537;DHT22;14204;51.262;5.488;2022-11-15T00:45:57;11.00;99.90
26537;DHT22;14204;51.262;5.488;2022-11-15T00:48:23;11.00;99.90
26537;DHT22;14204;51.262;5.488;2022-11-15T00:50:50;11.10;99.90
26537;DHT22;14204;51.262;5.488;2022-11-15T00:53:16;11.10;99.90
26537;DHT22;14204;51.262;5.488;2022-11-15T00:55:42;11.20;99.90
26537;DHT22;14204;51.262;5.488;2022-11-15T00:58:08;11.30;99.90
26537;DHT22;14204;51.262;5.488;2022-11-15T01:00:33;11.30;99.90
26537;DHT22;14204;51.262;5.488;2022-11-15T01:03:02;11.20;99.90
26537;DHT22;14204;51.262;5.488;2022-11-15T01:05:28;11.30;99.90
26537;DHT22;14204;51.262;5.488;2022-11-15T01:07:55;11.30;99.90
26537;DHT22;14204;51.262;5.488;2022-11-15T01:10:22;11.30;99.90
26537;DHT22;14204;51.262;5.488;2022-11-15T01:12:49;11.40;99.90
26537;DHT22;14204;51.262;5.488;2022-11-15T01:15:14;11.40;99.90
26537;DHT22;14204;51.262;5.488;2022-11-15T01:17:40;11.40;99.90
26537;DHT22;14204;51.262;5.488;2022-11-15T01:20:06;11.50;99.90
26537;DHT22;14204;51.262;5.488;2022-11-15T01:22:32;11.50;99.90
26537;DHT22;14204;51.262;5.488;2022-11-15T01:24:58;11.50;99.90
26537;DHT22;14204;51.262;5.488;2022-11-15T01:27:24;11.50;99.90
26537;DHT22;14204;51.262;5.488;2022-11-15T01:29:49;11.60;99.90
26537;DHT22;14204;51.262;5.488;2022-11-15T01:32:15;11.60;99.90
26537;DHT22;14204;51.262;5.488;2022-11-15T01:34:41;11.60;99.90
26537;DHT22;14204;51.262;5.488;2022-11-15T01:37:07;11.60;99.90
26537;DHT22;14204;51.262;5.488;2022-11-15T01:39:32;11.60;99.90
26537;DHT22;14204;51.262;5.488;2022-11-15T01:41:58;11.60;99.90
26537;DHT22;14204;51.262;5.488;2022-11-15T01:44:51;11.70;99.90
26537;DHT22;14204;51.262;5.488;2022-11-15T01:47:40;11.70;99.90
26537;DHT22;14204;51.262;5.488;2022-11-15T01:50:12;11.80;99.90
26537;DHT22;14204;51.262;5.488;2022-11-15T01:52:43;11.80;99.90
26537;DHT22;14204;51.262;5.488;2022-11-15T01:55:19;11.80;99.90
26537;DHT22;14204;51.262;5.488;2022-11-15T01:57:49;11.80;99.90
26537;DHT22;14204;51.262;5.488;2022-11-15T02:00:16;11.80;99.90
26537;DHT22;14204;51.262;5.488;2022-11-15T02:02:42;11.80;99.90
26537;DHT22;14204;51.262;5.488;2022-11-15T02:05:08;11.80;99.90
26537;DHT22;14204;51.262;5.488;2022-11-15T02:07:35;11.80;99.90
26537;DHT22;14204;51.262;5.488;2022-11-15T02:10:12;11.80;99.90
26537;DHT22;14204;51.262;5.488;2022-11-15T02:12:38;11.80;99.90
26537;DHT22;14204;51.262;5.488;2022-11-15T02:15:05;11.90;99.90
26537;DHT22;14204;51.262;5.488;2022-11-15T02:17:34;11.90;99.90
26537;DHT22;14204;51.262;5.488;2022-11-15T02:29:28;12.00;99.90
26537;DHT22;14204;51.262;5.488;2022-11-15T02:37:16;12.20;99.90
26537;DHT22;14204;51.262;5.488;2022-11-15T02:39:51;12.20;99.90
26537;DHT22;14204;51.262;5.488;2022-11-15T02:42:35;12.20;99.90
26537;DHT22;14204;51.262;5.488;2022-11-15T02:45:29;12.20;99.90
26537;DHT22;14204;51.262;5.488;2022-11-15T02:47:58;12.20;99.90
26537;DHT22;14204;51.262;5.488;2022-11-15T02:50:29;12.20;99.90
26537;DHT22;14204;51.262;5.488;2022-11-15T02:52:57;12.20;99.90
26537;DHT22;14204;51.262;5.488;2022-11-15T02:55:36;12.30;99.90
26537;DHT22;14204;51.262;5.488;2022-11-15T03:06:33;12.30;99.90
26537;DHT22;14204;51.262;5.488;2022-11-15T03:09:13;12.30;99.90
26537;DHT22;14204;51.262;5.488;2022-11-15T03:11:47;12.30;99.90
26537;DHT22;14204;51.262;5.488;2022-11-15T03:14:34;12.30;99.90
26537;DHT22;14204;51.262;5.488;2022-11-15T03:19:46;12.40;99.90
26537;DHT22;14204;51.262;5.488;2022-11-15T03:22:20;12.40;99.90
26537;DHT22;14204;51.262;5.488;2022-11-15T03:24:48;12.50;99.90
26537;DHT22;14204;51.262;5.488;2022-11-15T03:27:19;12.40;99.90
26537;DHT22;14204;51.262;5.488;2022-11-15T03:29:58;12.50;99.90
26537;DHT22;14204;51.262;5.488;2022-11-15T03:32:36;12.50;99.90
26537;DHT22;14204;51.262;5.488;2022-11-15T03:35:25;12.60;99.90
26537;DHT22;14204;51.262;5.488;2022-11-15T03:40:26;12.50;99.90
26537;DHT22;14204;51.262;5.488;2022-11-15T03:45:31;12.60;99.90
26537;DHT22;14204;51.262;5.488;2022-11-15T03:48:20;12.70;99.90
26537;DHT22;14204;51.262;5.488;2022-11-15T03:50:47;12.60;99.90
26537;DHT22;14204;51.262;5.488;2022-11-15T03:53:14;12.60;99.90
26537;DHT22;14204;51.262;5.488;2022-11-15T03:55:39;12.60;99.90
26537;DHT22;14204;51.262;5.488;2022-11-15T03:58:05;12.60;99.90
26537;DHT22;14204;51.262;5.488;2022-11-15T04:00:31;12.60;99.90
26537;DHT22;14204;51.262;5.488;2022-11-15T04:02:57;12.60;99.90
26537;DHT22;14204;51.262;5.488;2022-11-15T04:05:23;12.60;99.90
26537;DHT22;14204;51.262;5.488;2022-11-15T04:07:48;12.60;99.90
26537;DHT22;14204;51.262;5.488;2022-11-15T04:10:14;12.60;99.90
26537;DHT22;14204;51.262;5.488;2022-11-15T04:12:42;12.60;99.90
26537;DHT22;14204;51.262;5.488;2022-11-15T04:17:40;12.70;99.90
26537;DHT22;14204;51.262;5.488;2022-11-15T04:23:03;12.70;99.90
26537;DHT22;14204;51.262;5.488;2022-11-15T04:25:51;12.70;99.90
26537;DHT22;14204;51.262;5.488;2022-11-15T04:28:17;12.70;99.90
26537;DHT22;14204;51.262;5.488;2022-11-15T04:30:43;12.70;99.90
26537;DHT22;14204;51.262;5.488;2022-11-15T04:33:09;12.70;99.90
26537;DHT22;14204;51.262;5.488;2022-11-15T04:35:34;12.70;99.90
26537;DHT22;14204;51.262;5.488;2022-11-15T04:38:01;12.60;99.90
26537;DHT22;14204;51.262;5.488;2022-11-15T04:40:27;12.60;99.90
26537;DHT22;14204;51.262;5.488;2022-11-15T04:42:53;12.60;99.90
26537;DHT22;14204;51.262;5.488;2022-11-15T04:45:18;12.70;99.90
26537;DHT22;14204;51.262;5.488;2022-11-15T04:47:45;12.70;99.90
26537;DHT22;14204;51.262;5.488;2022-11-15T04:50:12;12.70;99.90
26537;DHT22;14204;51.262;5.488;2022-11-15T04:52:40;12.70;99.90
26537;DHT22;14204;51.262;5.488;2022-11-15T04:55:06;12.70;99.90
26537;DHT22;14204;51.262;5.488;2022-11-15T04:57:32;12.70;99.90
26537;DHT22;14204;51.262;5.488;2022-11-15T04:59:58;12.70;99.90
26537;DHT22;14204;51.262;5.488;2022-11-15T05:02:23;12.70;99.90
26537;DHT22;14204;51.262;5.488;2022-11-15T05:04:49;12.80;99.90
26537;DHT22;14204;51.262;5.488;2022-11-15T05:07:15;12.80;99.90
26537;DHT22;14204;51.262;5.488;2022-11-15T05:09:40;12.80;99.90
26537;DHT22;14204;51.262;5.488;2022-11-15T05:12:06;12.80;99.90
26537;DHT22;14204;51.262;5.488;2022-11-15T05:14:31;12.80;99.90
26537;DHT22;14204;51.262;5.488;2022-11-15T05:16:57;12.70;99.90
26537;DHT22;14204;51.262;5.488;2022-11-15T05:19:23;12.70;99.90
26537;DHT22;14204;51.262;5.488;2022-11-15T05:21:48;12.70;99.90
26537;DHT22;14204;51.262;5.488;2022-11-15T05:24:14;12.80;99.90
26537;DHT22;14204;51.262;5.488;2022-11-15T05:26:40;12.70;99.90
26537;DHT22;14204;51.262;5.488;2022-11-15T05:29:05;12.80;99.90
26537;DHT22;14204;51.262;5.488;2022-11-15T05:31:31;12.80;99.90
26537;DHT22;14204;51.262;5.488;2022-11-15T05:33:58;12.80;99.90
26537;DHT22;14204;51.262;5.488;2022-11-15T05:36:43;12.80;99.90
26537;DHT22;14204;51.262;5.488;2022-11-15T05:39:11;12.70;99.90
26537;DHT22;14204;51.262;5.488;2022-11-15T05:41:44;12.60;99.90
26537;DHT22;14204;51.262;5.488;2022-11-15T05:44:14;12.60;99.90
26537;DHT22;14204;51.262;5.488;2022-11-15T05:46:40;12.60;99.90
26537;DHT22;14204;51.262;5.488;2022-11-15T05:49:10;12.70;99.90
26537;DHT22;14204;51.262;5.488;2022-11-15T05:51:38;12.70;99.90
26537;DHT22;14204;51.262;5.488;2022-11-15T05:54:04;12.70;99.90
26537;DHT22;14204;51.262;5.488;2022-11-15T05:56:30;12.70;99.90
26537;DHT22;14204;51.262;5.488;2022-11-15T05:58:56;12.70;99.90
26537;DHT22;14204;51.262;5.488;2022-11-15T06:01:23;12.70;99.90
26537;DHT22;14204;51.262;5.488;2022-11-15T06:03:50;12.70;99.90
26537;DHT22;14204;51.262;5.488;2022-11-15T06:06:16;12.70;99.90
26537;DHT22;14204;51.262;5.488;2022-11-15T06:08:41;12.60;99.90
26537;DHT22;14204;51.262;5.488;2022-11-15T06:11:07;12.50;99.90
26537;DHT22;14204;51.262;5.488;2022-11-15T06:13:33;12.50;99.90
26537;DHT22;14204;51.262;5.488;2022-11-15T06:15:59;12.50;99.90
26537;DHT22;14204;51.262;5.488;2022-11-15T06:18:26;12.50;99.90
26537;DHT22;14204;51.262;5.488;2022-11-15T06:20:51;12.50;99.90
26537;DHT22;14204;51.262;5.488;2022-11-15T06:23:17;12.40;99.90
26537;DHT22;14204;51.262;5.488;2022-11-15T06:25:43;12.40;99.90
26537;DHT22;14204;51.262;5.488;2022-11-15T06:28:08;12.30;99.90
26537;DHT22;14204;51.262;5.488;2022-11-15T06:30:34;12.40;99.90
26537;DHT22;14204;51.262;5.488;2022-11-15T06:33:04;12.50;99.90
26537;DHT22;14204;51.262;5.488;2022-11-15T06:35:33;12.50;99.90
26537;DHT22;14204;51.262;5.488;2022-11-15T06:38:07;12.50;99.90
26537;DHT22;14204;51.262;5.488;2022-11-15T06:40:35;12.50;99.90
26537;DHT22;14204;51.262;5.488;2022-11-15T06:43:02;12.40;99.90
26537;DHT22;14204;51.262;5.488;2022-11-15T06:45:28;12.40;99.90
26537;DHT22;14204;51.262;5.488;2022-11-15T06:47:53;12.40;99.90
26537;DHT22;14204;51.262;5.488;2022-11-15T06:50:19;12.40;99.90
26537;DHT22;14204;51.262;5.488;2022-11-15T06:52:45;12.30;99.90
26537;DHT22;14204;51.262;5.488;2022-11-15T06:55:10;12.30;99.90
26537;DHT22;14204;51.262;5.488;2022-11-15T06:57:36;12.30;99.90
26537;DHT22;14204;51.262;5.488;2022-11-15T07:00:04;12.30;99.90
26537;DHT22;14204;51.262;5.488;2022-11-15T07:02:30;12.30;99.90
26537;DHT22;14204;51.262;5.488;2022-11-15T07:04:56;12.30;99.90
26537;DHT22;14204;51.262;5.488;2022-11-15T07:07:21;12.30;99.90
26537;DHT22;14204;51.262;5.488;2022-11-15T07:09:47;12.30;99.90
26537;DHT22;14204;51.262;5.488;2022-11-15T07:12:13;12.30;99.90
26537;DHT22;14204;51.262;5.488;2022-11-15T07:14:38;12.30;99.90
26537;DHT22;14204;51.262;5.488;2022-11-15T07:17:05;12.20;99.90
26537;DHT22;14204;51.262;5.488;2022-11-15T07:19:31;12.20;99.90
26537;DHT22;14204;51.262;5.488;2022-11-15T07:21:56;12.20;99.90
26537;DHT22;14204;51.262;5.488;2022-11-15T07:24:22;12.20;99.90
26537;DHT22;14204;51.262;5.488;2022-11-15T07:26:47;12.10;99.90
26537;DHT22;14204;51.262;5.488;2022-11-15T07:29:13;12.10;99.90
26537;DHT22;14204;51.262;5.488;2022-11-15T07:31:38;12.10;99.90
26537;DHT22;14204;51.262;5.488;2022-11-15T07:34:04;12.10;99.90
26537;DHT22;14204;51.262;5.488;2022-11-15T07:36:30;12.00;99.90
26537;DHT22;14204;51.262;5.488;2022-11-15T07:38:55;12.00;99.90
26537;DHT22;14204;51.262;5.488;2022-11-15T07:41:21;12.00;99.90
26537;DHT22;14204;51.262;5.488;2022-11-15T07:43:47;12.00;99.90
26537;DHT22;14204;51.262;5.488;2022-11-15T07:46:12;12.00;99.90
26537;DHT22;14204;51.262;5.488;2022-11-15T07:48:39;12.00;99.90
26537;DHT22;14204;51.262;5.488;2022-11-15T07:51:06;12.00;99.90
26537;DHT22;14204;51.262;5.488;2022-11-15T07:53:31;12.00;99.90
26537;DHT22;14204;51.262;5.488;2022-11-15T07:55:57;12.00;99.90
26537;DHT22;14204;51.262;5.488;2022-11-15T07:58:23;12.00;99.90
26537;DHT22;14204;51.262;5.488;2022-11-15T08:00:48;11.90;99.90
26537;DHT22;14204;51.262;5.488;2022-11-15T08:03:16;11.90;99.90
26537;DHT22;14204;51.262;5.488;2022-11-15T08:05:42;11.90;99.90
26537;DHT22;14204;51.262;5.488;2022-11-15T08:08:11;11.90;99.90
26537;DHT22;14204;51.262;5.488;2022-11-15T08:10:37;11.90;99.90
26537;DHT22;14204;51.262;5.488;2022-11-15T08:13:08;11.90;99.90
26537;DHT22;14204;51.262;5.488;2022-11-15T08:15:35;11.80;99.90
26537;DHT22;14204;51.262;5.488;2022-11-15T08:18:06;11.80;99.90
26537;DHT22;14204;51.262;5.488;2022-11-15T08:20:32;11.80;99.90
26537;DHT22;14204;51.262;5.488;2022-11-15T08:23:02;11.80;99.90
26537;DHT22;14204;51.262;5.488;2022-11-15T08:25:30;11.90;99.90
26537;DHT22;14204;51.262;5.488;2022-11-15T08:27:58;11.90;99.90
26537;DHT22;14204;51.262;5.488;2022-11-15T08:30:24;11.90;99.90
26537;DHT22;14204;51.262;5.488;2022-11-15T08:32:51;11.90;99.90
26537;DHT22;14204;51.262;5.488;2022-11-15T08:35:18;12.00;99.90
26537;DHT22;14204;51.262;5.488;2022-11-15T08:37:44;12.00;99.90
26537;DHT22;14204;51.262;5.488;2022-11-15T08:40:10;12.00;99.90
26537;DHT22;14204;51.262;5.488;2022-11-15T08:42:36;11.90;99.90
26537;DHT22;14204;51.262;5.488;2022-11-15T08:45:02;11.90;99.90
26537;DHT22;14204;51.262;5.488;2022-11-15T08:47:28;11.90;99.90
26537;DHT22;14204;51.262;5.488;2022-11-15T08:49:53;11.80;99.90
26537;DHT22;14204;51.262;5.488;2022-11-15T08:52:19;11.90;99.90
26537;DHT22;14204;51.262;5.488;2022-11-15T08:54:45;11.80;99.90
26537;DHT22;14204;51.262;5.488;2022-11-15T08:57:10;11.80;99.90
26537;DHT22;14204;51.262;5.488;2022-11-15T08:59:37;11.80;99.90
26537;DHT22;14204;51.262;5.488;2022-11-15T09:02:03;11.80;99.90
26537;DHT22;14204;51.262;5.488;2022-11-15T09:04:29;11.80;99.90
26537;DHT22;14204;51.262;5.488;2022-11-15T09:06:54;11.70;99.90
26537;DHT22;14204;51.262;5.488;2022-11-15T09:09:20;11.80;99.90
26537;DHT22;14204;51.262;5.488;2022-11-15T09:11:45;11.90;99.90
26537;DHT22;14204;51.262;5.488;2022-11-15T09:14:12;12.00;99.90
26537;DHT22;14204;51.262;5.488;2022-11-15T09:16:38;11.90;99.90
26537;DHT22;14204;51.262;5.488;2022-11-15T09:19:03;12.00;99.90
26537;DHT22;14204;51.262;5.488;2022-11-15T09:21:29;12.00;99.90
26537;DHT22;14204;51.262;5.488;2022-11-15T09:23:55;11.90;99.90
26537;DHT22;14204;51.262;5.488;2022-11-15T09:26:21;12.00;99.90
26537;DHT22;14204;51.262;5.488;2022-11-15T09:28:47;12.00;99.90
26537;DHT22;14204;51.262;5.488;2022-11-15T09:31:13;12.10;99.90
26537;DHT22;14204;51.262;5.488;2022-11-15T09:33:38;12.10;99.90
26537;DHT22;14204;51.262;5.488;2022-11-15T09:36:06;12.20;99.90
26537;DHT22;14204;51.262;5.488;2022-11-15T09:38:33;12.20;99.90
26537;DHT22;14204;51.262;5.488;2022-11-15T09:49:17;12.30;99.90
26537;DHT22;14204;51.262;5.488;2022-11-15T09:51:45;12.30;99.90
26537;DHT22;14204;51.262;5.488;2022-11-15T10:03:14;12.40;99.90
26537;DHT22;14204;51.262;5.488;2022-11-15T10:05:44;12.40;99.90
26537;DHT22;14204;51.262;5.488;2022-11-15T10:08:25;12.40;99.90
26537;DHT22;14204;51.262;5.488;2022-11-15T10:10:59;12.30;99.90
26537;DHT22;14204;51.262;5.488;2022-11-15T10:13:27;12.40;99.90
26537;DHT22;14204;51.262;5.488;2022-11-15T10:16:09;12.50;99.90
26537;DHT22;14204;51.262;5.488;2022-11-15T10:24:19;12.50;99.90
26537;DHT22;14204;51.262;5.488;2022-11-15T10:26:49;12.50;99.90
26537;DHT22;14204;51.262;5.488;2022-11-15T10:29:22;12.40;99.90
26537;DHT22;14204;51.262;5.488;2022-11-15T10:31:49;12.40;99.90
26537;DHT22;14204;51.262;5.488;2022-11-15T10:34:20;12.40;99.90
26537;DHT22;14204;51.262;5.488;2022-11-15T10:36:56;12.40;99.90
26537;DHT22;14204;51.262;5.488;2022-11-15T10:39:22;12.40;99.90
26537;DHT22;14204;51.262;5.488;2022-11-15T10:41:48;12.40;99.90
26537;DHT22;14204;51.262;5.488;2022-11-15T10:49:22;12.70;99.90
26537;DHT22;14204;51.262;5.488;2022-11-15T10:51:56;12.70;99.90
26537;DHT22;14204;51.262;5.488;2022-11-15T10:54:39;12.70;99.90
26537;DHT22;14204;51.262;5.488;2022-11-15T10:57:29;12.70;99.90
26537;DHT22;14204;51.262;5.488;2022-11-15T11:00:02;12.80;99.90
26537;DHT22;14204;51.262;5.488;2022-11-15T11:02:35;12.80;99.90
26537;DHT22;14204;51.262;5.488;2022-11-15T11:05:05;12.90;99.90
26537;DHT22;14204;51.262;5.488;2022-11-15T11:07:32;12.90;99.90
26537;DHT22;14204;51.262;5.488;2022-11-15T11:10:18;12.90;99.90
26537;DHT22;14204;51.262;5.488;2022-11-15T11:12:44;13.00;99.90
26537;DHT22;14204;51.262;5.488;2022-11-15T11:15:12;13.20;99.90
26537;DHT22;14204;51.262;5.488;2022-11-15T11:25:35;13.10;99.90
26537;DHT22;14204;51.262;5.488;2022-11-15T11:31:59;13.20;99.90
26537;DHT22;14204;51.262;5.488;2022-11-15T11:37:31;13.30;99.90
26537;DHT22;14204;51.262;5.488;2022-11-15T11:40:10;13.30;99.90
26537;DHT22;14204;51.262;5.488;2022-11-15T11:42:55;13.30;99.90
26537;DHT22;14204;51.262;5.488;2022-11-15T11:48:45;13.30;99.90
26537;DHT22;14204;51.262;5.488;2022-11-15T11:51:32;13.20;99.90
26537;DHT22;14204;51.262;5.488;2022-11-15T11:54:10;13.20;99.90
26537;DHT22;14204;51.262;5.488;2022-11-15T11:56:39;13.30;99.90
26537;DHT22;14204;51.262;5.488;2022-11-15T11:59:16;13.30;99.90
26537;DHT22;14204;51.262;5.488;2022-11-15T12:01:45;13.40;99.90
26537;DHT22;14204;51.262;5.488;2022-11-15T12:04:30;13.40;99.90
26537;DHT22;14204;51.262;5.488;2022-11-15T12:07:23;13.50;99.90
26537;DHT22;14204;51.262;5.488;2022-11-15T12:09:59;13.50;99.90
26537;DHT22;14204;51.262;5.488;2022-11-15T12:15:43;13.60;99.90
26537;DHT22;14204;51.262;5.488;2022-11-15T12:18:15;13.50;99.90
26537;DHT22;14204;51.262;5.488;2022-11-15T12:21:00;13.60;99.90
26537;DHT22;14204;51.262;5.488;2022-11-15T12:23:35;13.60;99.90
26537;DHT22;14204;51.262;5.488;2022-11-15T12:26:04;13.60;99.90
26537;DHT22;14204;51.262;5.488;2022-11-15T12:31:23;13.60;99.90
26537;DHT22;14204;51.262;5.488;2022-11-15T12:33:50;13.60;99.90
26537;DHT22;14204;51.262;5.488;2022-11-15T12:38:55;13.50;99.90
26537;DHT22;14204;51.262;5.488;2022-11-15T12:41:28;13.40;99.90
26537;DHT22;14204;51.262;5.488;2022-11-15T12:43:54;13.50;99.90
26537;DHT22;14204;51.262;5.488;2022-11-15T12:46:21;13.50;99.90
26537;DHT22;14204;51.262;5.488;2022-11-15T12:48:51;13.50;99.90
26537;DHT22;14204;51.262;5.488;2022-11-15T12:51:20;13.50;99.90
26537;DHT22;14204;51.262;5.488;2022-11-15T12:53:45;13.50;99.90
26537;DHT22;14204;51.262;5.488;2022-11-15T12:58:59;13.60;99.90
26537;DHT22;14204;51.262;5.488;2022-11-15T13:07:05;13.60;99.90
26537;DHT22;14204;51.262;5.488;2022-11-15T13:17:11;13.50;99.90
26537;DHT22;14204;51.262;5.488;2022-11-15T13:19:38;13.60;99.90
26537;DHT22;14204;51.262;5.488;2022-11-15T13:22:08;13.60;99.90
26537;DHT22;14204;51.262;5.488;2022-11-15T13:24:54;13.60;99.90
26537;DHT22;14204;51.262;5.488;2022-11-15T13:27:20;13.70;99.90
26537;DHT22;14204;51.262;5.488;2022-11-15T13:29:46;13.70;99.90
26537;DHT22;14204;51.262;5.488;2022-11-15T13:32:13;13.70;99.90
26537;DHT22;14204;51.262;5.488;2022-11-15T13:34:44;13.70;99.90
26537;DHT22;14204;51.262;5.488;2022-11-15T13:39:47;13.70;99.90
26537;DHT22;14204;51.262;5.488;2022-11-15T13:42:20;13.80;99.90
26537;DHT22;14204;51.262;5.488;2022-11-15T13:45:00;13.80;99.90
26537;DHT22;14204;51.262;5.488;2022-11-15T13:47:28;13.80;99.90
26537;DHT22;14204;51.262;5.488;2022-11-15T13:49:57;13.80;99.90
26537;DHT22;14204;51.262;5.488;2022-11-15T13:52:27;13.80;99.90
26537;DHT22;14204;51.262;5.488;2022-11-15T13:55:04;13.80;99.90
26537;DHT22;14204;51.262;5.488;2022-11-15T13:57:43;13.70;99.90
26537;DHT22;14204;51.262;5.488;2022-11-15T14:00:38;13.70;99.90
26537;DHT22;14204;51.262;5.488;2022-11-15T14:03:20;13.70;99.90
26537;DHT22;14204;51.262;5.488;2022-11-15T14:06:13;13.80;99.90
26537;DHT22;14204;51.262;5.488;2022-11-15T14:08:58;13.80;99.90
26537;DHT22;14204;51.262;5.488;2022-11-15T14:11:24;13.80;99.90
26537;DHT22;14204;51.262;5.488;2022-11-15T14:16:40;13.80;99.90
26537;DHT22;14204;51.262;5.488;2022-11-15T14:19:09;13.80;99.90
26537;DHT22;14204;51.262;5.488;2022-11-15T14:21:35;13.80;99.90
26537;DHT22;14204;51.262;5.488;2022-11-15T14:24:21;13.80;99.90
26537;DHT22;14204;51.262;5.488;2022-11-15T14:26:47;13.70;99.90
26537;DHT22;14204;51.262;5.488;2022-11-15T14:29:28;13.70;99.90
26537;DHT22;14204;51.262;5.488;2022-11-15T14:32:12;13.70;99.90
26537;DHT22;14204;51.262;5.488;2022-11-15T14:34:38;13.70;99.90
26537;DHT22;14204;51.262;5.488;2022-11-15T14:37:04;13.70;99.90
26537;DHT22;14204;51.262;5.488;2022-11-15T14:39:30;13.70;99.90
26537;DHT22;14204;51.262;5.488;2022-11-15T14:41:55;13.70;99.90
26537;DHT22;14204;51.262;5.488;2022-11-15T14:44:21;13.70;99.90
26537;DHT22;14204;51.262;5.488;2022-11-15T14:46:47;13.70;99.90
26537;DHT22;14204;51.262;5.488;2022-11-15T14:49:14;13.70;99.90
26537;DHT22;14204;51.262;5.488;2022-11-15T14:51:40;13.60;99.90
26537;DHT22;14204;51.262;5.488;2022-11-15T14:54:10;13.60;99.90
26537;DHT22;14204;51.262;5.488;2022-11-15T14:56:35;13.60;99.90
26537;DHT22;14204;51.262;5.488;2022-11-15T14:59:01;13.70;99.90
26537;DHT22;14204;51.262;5.488;2022-11-15T15:01:27;13.70;99.90
26537;DHT22;14204;51.262;5.488;2022-11-15T15:03:53;13.60;99.90
26537;DHT22;14204;51.262;5.488;2022-11-15T15:06:23;13.70;99.90
26537;DHT22;14204;51.262;5.488;2022-11-15T15:08:49;13.70;99.90
26537;DHT22;14204;51.262;5.488;2022-11-15T15:11:21;13.70;99.90
26537;DHT22;14204;51.262;5.488;2022-11-15T15:13:48;13.60;99.90
26537;DHT22;14204;51.262;5.488;2022-11-15T15:16:13;13.60;99.90
26537;DHT22;14204;51.262;5.488;2022-11-15T15:18:39;13.60;99.90
26537;DHT22;14204;51.262;5.488;2022-11-15T15:21:24;13.70;99.90
26537;DHT22;14204;51.262;5.488;2022-11-15T15:23:51;13.70;99.90
26537;DHT22;14204;51.262;5.488;2022-11-15T15:26:17;13.60;99.90
26537;DHT22;14204;51.262;5.488;2022-11-15T15:28:42;13.60;99.90
26537;DHT22;14204;51.262;5.488;2022-11-15T15:31:09;13.60;99.90
26537;DHT22;14204;51.262;5.488;2022-11-15T15:33:35;13.60;99.90
26537;DHT22;14204;51.262;5.488;2022-11-15T15:36:01;13.60;99.90
26537;DHT22;14204;51.262;5.488;2022-11-15T15:38:27;13.60;99.90
26537;DHT22;14204;51.262;5.488;2022-11-15T15:40:53;13.60;99.90
26537;DHT22;14204;51.262;5.488;2022-11-15T15:43:18;13.70;99.90
26537;DHT22;14204;51.262;5.488;2022-11-15T15:45:44;13.60;99.90
26537;DHT22;14204;51.262;5.488;2022-11-15T15:48:15;13.60;99.90
26537;DHT22;14204;51.262;5.488;2022-11-15T15:50:42;13.60;99.90
26537;DHT22;14204;51.262;5.488;2022-11-15T15:53:09;13.60;99.90
26537;DHT22;14204;51.262;5.488;2022-11-15T15:55:36;13.60;99.90
26537;DHT22;14204;51.262;5.488;2022-11-15T15:58:02;13.70;99.90
26537;DHT22;14204;51.262;5.488;2022-11-15T16:00:28;13.60;99.90
26537;DHT22;14204;51.262;5.488;2022-11-15T16:02:54;13.60;99.90
26537;DHT22;14204;51.262;5.488;2022-11-15T16:05:20;13.60;99.90
26537;DHT22;14204;51.262;5.488;2022-11-15T16:07:46;13.60;99.90
26537;DHT22;14204;51.262;5.488;2022-11-15T16:10:22;13.50;99.90
26537;DHT22;14204;51.262;5.488;2022-11-15T16:12:50;13.50;99.90
26537;DHT22;14204;51.262;5.488;2022-11-15T16:15:16;13.50;99.90
26537;DHT22;14204;51.262;5.488;2022-11-15T16:17:53;13.40;99.90
26537;DHT22;14204;51.262;5.488;2022-11-15T16:20:38;13.50;99.90
26537;DHT22;14204;51.262;5.488;2022-11-15T16:23:07;13.40;99.90
26537;DHT22;14204;51.262;5.488;2022-11-15T16:25:45;13.40;99.90
26537;DHT22;14204;51.262;5.488;2022-11-15T16:28:17;13.40;99.90
26537;DHT22;14204;51.262;5.488;2022-11-15T16:30:43;13.30;99.90
26537;DHT22;14204;51.262;5.488;2022-11-15T16:33:09;13.30;99.90
26537;DHT22;14204;51.262;5.488;2022-11-15T16:35:34;13.30;99.90
26537;DHT22;14204;51.262;5.488;2022-11-15T16:38:01;13.30;99.90
26537;DHT22;14204;51.262;5.488;2022-11-15T16:40:33;13.20;99.90
26537;DHT22;14204;51.262;5.488;2022-11-15T16:43:00;13.20;99.90
26537;DHT22;14204;51.262;5.488;2022-11-15T16:45:27;13.20;99.90
26537;DHT22;14204;51.262;5.488;2022-11-15T16:47:55;13.20;99.90
26537;DHT22;14204;51.262;5.488;2022-11-15T16:50:26;13.20;99.90
26537;DHT22;14204;51.262;5.488;2022-11-15T16:52:54;13.10;99.90
26537;DHT22;14204;51.262;5.488;2022-11-15T16:55:21;13.00;99.90
26537;DHT22;14204;51.262;5.488;2022-11-15T16:57:47;13.00;99.90
26537;DHT22;14204;51.262;5.488;2022-11-15T17:00:14;13.00;99.90
26537;DHT22;14204;51.262;5.488;2022-11-15T17:02:46;13.00;99.90
26537;DHT22;14204;51.262;5.488;2022-11-15T17:05:12;12.90;99.90
26537;DHT22;14204;51.262;5.488;2022-11-15T17:07:39;12.90;99.90
26537;DHT22;14204;51.262;5.488;2022-11-15T17:10:05;12.90;99.90
26537;DHT22;14204;51.262;5.488;2022-11-15T17:12:33;12.80;99.90
26537;DHT22;14204;51.262;5.488;2022-11-15T17:14:59;12.80;99.90
26537;DHT22;14204;51.262;5.488;2022-11-15T17:17:24;12.80;99.90
26537;DHT22;14204;51.262;5.488;2022-11-15T17:19:51;12.80;99.90
26537;DHT22;14204;51.262;5.488;2022-11-15T17:22:18;12.80;99.90
26537;DHT22;14204;51.262;5.488;2022-11-15T17:24:43;12.80;99.90
26537;DHT22;14204;51.262;5.488;2022-11-15T17:27:09;12.90;99.90
26537;DHT22;14204;51.262;5.488;2022-11-15T17:29:35;12.80;99.90
26537;DHT22;14204;51.262;5.488;2022-11-15T17:32:00;12.80;99.90
26537;DHT22;14204;51.262;5.488;2022-11-15T17:34:26;12.80;99.90